sensor_id;sensor_type;location;lat;lon;timestamp;P1;durP1;ratioP1;P2;durP2;ratioP2
32455;SDS011;18912;43.270;27.942;2022-10-19T00:02:17;7.10;;;3.80;;
32455;SDS011;18912;43.270;27.942;2022-10-19T00:04:43;19.73;;;4.37;;
32455;SDS011;18912;43.270;27.942;2022-10-19T00:07:08;29.67;;;4.40;;
32455;SDS011;18912;43.270;27.942;2022-10-19T00:09:34;35.00;;;4.47;;
32455;SDS011;18912;43.270;27.942;2022-10-19T00:11:59;85.07;;;5.10;;
32455;SDS011;18912;43.270;27.942;2022-10-19T00:14:25;68.90;;;4.83;;
32455;SDS011;18912;43.270;27.942;2022-10-19T00:16:51;21.53;;;4.37;;
32455;SDS011;18912;43.270;27.942;2022-10-19T00:19:22;61.70;;;4.55;;
32455;SDS011;18912;43.270;27.942;2022-10-19T00:21:50;64.05;;;4.57;;
32455;SDS011;18912;43.270;27.942;2022-10-19T00:24:16;22.43;;;4.07;;
32455;SDS011;18912;43.270;27.942;2022-10-19T00:26:41;27.23;;;4.20;;
32455;SDS011;18912;43.270;27.942;2022-10-19T00:29:07;49.07;;;4.40;;
32455;SDS011;18912;43.270;27.942;2022-10-19T00:31:33;22.27;;;2.40;;
32455;SDS011;18912;43.270;27.942;2022-10-19T00:33:58;49.60;;;2.43;;
32455;SDS011;18912;43.270;27.942;2022-10-19T00:36:26;19.58;;;2.70;;
32455;SDS011;18912;43.270;27.942;2022-10-19T00:39:03;49.33;;;4.68;;
32455;SDS011;18912;43.270;27.942;2022-10-19T00:41:31;15.10;;;4.32;;
32455;SDS011;18912;43.270;27.942;2022-10-19T00:44:03;98.32;;;5.50;;
32455;SDS011;18912;43.270;27.942;2022-10-19T00:46:30;5.45;;;3.83;;
32455;SDS011;18912;43.270;27.942;2022-10-19T00:49:02;8.82;;;4.53;;
32455;SDS011;18912;43.270;27.942;2022-10-19T00:51:31;67.57;;;5.82;;
32455;SDS011;18912;43.270;27.942;2022-10-19T00:54:00;109.57;;;6.57;;
32455;SDS011;18912;43.270;27.942;2022-10-19T00:56:28;52.60;;;6.28;;
32455;SDS011;18912;43.270;27.942;2022-10-19T00:58:54;16.30;;;5.57;;
32455;SDS011;18912;43.270;27.942;2022-10-19T01:01:20;44.77;;;6.07;;
32455;SDS011;18912;43.270;27.942;2022-10-19T01:03:48;67.13;;;6.78;;
32455;SDS011;18912;43.270;27.942;2022-10-19T01:06:14;152.40;;;7.77;;
32455;SDS011;18912;43.270;27.942;2022-10-19T01:08:41;82.80;;;6.80;;
32455;SDS011;18912;43.270;27.942;2022-10-19T01:16:48;148.95;;;8.60;;
32455;SDS011;18912;43.270;27.942;2022-10-19T01:28:12;52.78;;;4.78;;
32455;SDS011;18912;43.270;27.942;2022-10-19T01:30:51;141.40;;;6.18;;
32455;SDS011;18912;43.270;27.942;2022-10-19T01:33:40;342.23;;;10.45;;
32455;SDS011;18912;43.270;27.942;2022-10-19T01:38:57;56.58;;;6.68;;
32455;SDS011;18912;43.270;27.942;2022-10-19T01:46:54;253.50;;;10.05;;
32455;SDS011;18912;43.270;27.942;2022-10-19T01:49:31;250.77;;;10.07;;
32455;SDS011;18912;43.270;27.942;2022-10-19T01:52:05;204.35;;;8.75;;
32455;SDS011;18912;43.270;27.942;2022-10-19T01:54:39;193.68;;;8.20;;
32455;SDS011;18912;43.270;27.942;2022-10-19T01:57:09;84.15;;;6.20;;
32455;SDS011;18912;43.270;27.942;2022-10-19T01:59:38;10.48;;;5.20;;
32455;SDS011;18912;43.270;27.942;2022-10-19T02:04:31;10.55;;;5.53;;
32455;SDS011;18912;43.270;27.942;2022-10-19T02:06:58;90.80;;;7.57;;
32455;SDS011;18912;43.270;27.942;2022-10-19T02:09:25;10.05;;;5.22;;
32455;SDS011;18912;43.270;27.942;2022-10-19T02:11:52;111.67;;;6.73;;
32455;SDS011;18912;43.270;27.942;2022-10-19T02:14:23;11.43;;;4.55;;
32455;SDS011;18912;43.270;27.942;2022-10-19T02:17:01;186.55;;;7.82;;
32455;SDS011;18912;43.270;27.942;2022-10-19T02:19:31;48.08;;;5.90;;
32455;SDS011;18912;43.270;27.942;2022-10-19T02:21:56;194.37;;;6.93;;
32455;SDS011;18912;43.270;27.942;2022-10-19T02:24:22;59.38;;;5.35;;
32455;SDS011;18912;43.270;27.942;2022-10-19T02:26:48;233.37;;;10.87;;
32455;SDS011;18912;43.270;27.942;2022-10-19T02:29:14;17.52;;;6.35;;
32455;SDS011;18912;43.270;27.942;2022-10-19T02:31:40;16.20;;;5.93;;
32455;SDS011;18912;43.270;27.942;2022-10-19T02:34:07;10.40;;;6.38;;
32455;SDS011;18912;43.270;27.942;2022-10-19T02:36:33;9.93;;;5.82;;
32455;SDS011;18912;43.270;27.942;2022-10-19T02:38:59;12.82;;;6.00;;
32455;SDS011;18912;43.270;27.942;2022-10-19T02:47:17;9.15;;;5.20;;
32455;SDS011;18912;43.270;27.942;2022-10-19T02:49:56;11.38;;;5.22;;
32455;SDS011;18912;43.270;27.942;2022-10-19T02:52:21;464.50;;;17.00;;
32455;SDS011;18912;43.270;27.942;2022-10-19T02:54:47;9.73;;;5.37;;
32455;SDS011;18912;43.270;27.942;2022-10-19T02:57:16;5.50;;;3.77;;
32455;SDS011;18912;43.270;27.942;2022-10-19T02:59:47;12.70;;;5.68;;
32455;SDS011;18912;43.270;27.942;2022-10-19T03:02:13;64.25;;;7.25;;
32455;SDS011;18912;43.270;27.942;2022-10-19T03:04:40;12.13;;;6.82;;
32455;SDS011;18912;43.270;27.942;2022-10-19T03:07:06;10.90;;;6.50;;
32455;SDS011;18912;43.270;27.942;2022-10-19T03:09:32;11.57;;;7.45;;
32455;SDS011;18912;43.270;27.942;2022-10-19T03:11:58;16.43;;;6.53;;
32455;SDS011;18912;43.270;27.942;2022-10-19T03:14:23;13.17;;;6.57;;
32455;SDS011;18912;43.270;27.942;2022-10-19T03:16:49;10.30;;;4.17;;
32455;SDS011;18912;43.270;27.942;2022-10-19T03:19:14;333.60;;;18.80;;
32455;SDS011;18912;43.270;27.942;2022-10-19T03:21:40;60.27;;;11.63;;
32455;SDS011;18912;43.270;27.942;2022-10-19T03:24:05;33.90;;;9.70;;
32455;SDS011;18912;43.270;27.942;2022-10-19T03:26:31;21.37;;;9.10;;
32455;SDS011;18912;43.270;27.942;2022-10-19T03:28:56;27.93;;;10.40;;
32455;SDS011;18912;43.270;27.942;2022-10-19T03:31:22;124.73;;;13.07;;
32455;SDS011;18912;43.270;27.942;2022-10-19T03:33:47;302.40;;;18.60;;
32455;SDS011;18912;43.270;27.942;2022-10-19T03:36:22;276.70;;;18.17;;
32455;SDS011;18912;43.270;27.942;2022-10-19T03:38:49;278.48;;;18.67;;
32455;SDS011;18912;43.270;27.942;2022-10-19T03:41:16;156.07;;;19.60;;
32455;SDS011;18912;43.270;27.942;2022-10-19T03:46:07;476.38;;;21.88;;
32455;SDS011;18912;43.270;27.942;2022-10-19T03:48:33;74.50;;;16.97;;
32455;SDS011;18912;43.270;27.942;2022-10-19T03:51:06;494.90;;;24.08;;
32455;SDS011;18912;43.270;27.942;2022-10-19T03:53:34;867.28;;;31.27;;
32455;SDS011;18912;43.270;27.942;2022-10-19T03:56:03;990.30;;;39.70;;
32455;SDS011;18912;43.270;27.942;2022-10-19T03:58:32;1062.45;;;40.35;;
32455;SDS011;18912;43.270;27.942;2022-10-19T04:00:59;821.20;;;39.42;;
32455;SDS011;18912;43.270;27.942;2022-10-19T04:03:24;258.60;;;22.80;;
32455;SDS011;18912;43.270;27.942;2022-10-19T04:05:50;451.43;;;26.13;;
32455;SDS011;18912;43.270;27.942;2022-10-19T04:08:16;533.83;;;27.58;;
32455;SDS011;18912;43.270;27.942;2022-10-19T04:10:42;798.83;;;32.17;;
32455;SDS011;18912;43.270;27.942;2022-10-19T04:13:08;174.27;;;21.05;;
32455;SDS011;18912;43.270;27.942;2022-10-19T04:15:34;73.10;;;18.67;;
32455;SDS011;18912;43.270;27.942;2022-10-19T04:18:00;66.00;;;13.50;;
32455;SDS011;18912;43.270;27.942;2022-10-19T04:20:26;37.47;;;9.87;;
32455;SDS011;18912;43.270;27.942;2022-10-19T04:22:51;38.73;;;14.70;;
32455;SDS011;18912;43.270;27.942;2022-10-19T04:25:17;35.13;;;13.93;;
32455;SDS011;18912;43.270;27.942;2022-10-19T04:27:43;29.87;;;12.10;;
32455;SDS011;18912;43.270;27.942;2022-10-19T04:30:09;32.92;;;11.43;;
32455;SDS011;18912;43.270;27.942;2022-10-19T04:32:35;30.75;;;10.95;;
32455;SDS011;18912;43.270;27.942;2022-10-19T04:35:00;66.97;;;11.63;;
32455;SDS011;18912;43.270;27.942;2022-10-19T04:37:25;84.50;;;12.90;;
32455;SDS011;18912;43.270;27.942;2022-10-19T04:39:51;46.70;;;12.47;;
32455;SDS011;18912;43.270;27.942;2022-10-19T04:42:16;26.53;;;10.30;;
32455;SDS011;18912;43.270;27.942;2022-10-19T04:44:42;30.03;;;11.27;;
32455;SDS011;18912;43.270;27.942;2022-10-19T04:47:07;48.00;;;12.23;;
32455;SDS011;18912;43.270;27.942;2022-10-19T04:49:33;42.10;;;11.93;;
32455;SDS011;18912;43.270;27.942;2022-10-19T04:51:58;30.20;;;9.90;;
32455;SDS011;18912;43.270;27.942;2022-10-19T04:54:24;24.47;;;7.70;;
32455;SDS011;18912;43.270;27.942;2022-10-19T04:56:49;15.83;;;6.03;;
32455;SDS011;18912;43.270;27.942;2022-10-19T04:59:15;18.70;;;7.93;;
32455;SDS011;18912;43.270;27.942;2022-10-19T05:01:40;33.23;;;9.10;;
32455;SDS011;18912;43.270;27.942;2022-10-19T05:04:06;20.30;;;7.77;;
32455;SDS011;18912;43.270;27.942;2022-10-19T05:06:31;31.73;;;8.83;;
32455;SDS011;18912;43.270;27.942;2022-10-19T05:08:57;27.07;;;8.37;;
32455;SDS011;18912;43.270;27.942;2022-10-19T05:11:24;21.25;;;8.68;;
32455;SDS011;18912;43.270;27.942;2022-10-19T05:13:50;20.13;;;8.90;;
32455;SDS011;18912;43.270;27.942;2022-10-19T05:16:16;30.00;;;9.18;;
32455;SDS011;18912;43.270;27.942;2022-10-19T05:18:51;40.58;;;11.23;;
32455;SDS011;18912;43.270;27.942;2022-10-19T05:21:23;34.95;;;10.48;;
32455;SDS011;18912;43.270;27.942;2022-10-19T05:23:49;28.15;;;9.90;;
32455;SDS011;18912;43.270;27.942;2022-10-19T05:26:16;32.33;;;9.27;;
32455;SDS011;18912;43.270;27.942;2022-10-19T05:28:50;23.58;;;9.75;;
32455;SDS011;18912;43.270;27.942;2022-10-19T05:33:46;19.50;;;7.60;;
32455;SDS011;18912;43.270;27.942;2022-10-19T05:36:33;17.03;;;7.27;;
32455;SDS011;18912;43.270;27.942;2022-10-19T05:39:03;19.48;;;8.07;;
32455;SDS011;18912;43.270;27.942;2022-10-19T05:41:39;18.75;;;7.68;;
32455;SDS011;18912;43.270;27.942;2022-10-19T05:44:06;15.10;;;7.65;;
32455;SDS011;18912;43.270;27.942;2022-10-19T05:46:39;18.75;;;6.95;;
32455;SDS011;18912;43.270;27.942;2022-10-19T05:49:05;16.87;;;7.83;;
32455;SDS011;18912;43.270;27.942;2022-10-19T05:51:31;12.97;;;6.73;;
32455;SDS011;18912;43.270;27.942;2022-10-19T05:53:56;20.30;;;6.10;;
32455;SDS011;18912;43.270;27.942;2022-10-19T05:56:23;18.87;;;6.17;;
32455;SDS011;18912;43.270;27.942;2022-10-19T05:58:50;17.40;;;6.00;;
32455;SDS011;18912;43.270;27.942;2022-10-19T06:01:17;13.40;;;4.93;;
32455;SDS011;18912;43.270;27.942;2022-10-19T06:03:44;16.75;;;5.20;;
32455;SDS011;18912;43.270;27.942;2022-10-19T06:06:11;13.82;;;5.13;;
32455;SDS011;18912;43.270;27.942;2022-10-19T06:08:37;31.40;;;4.93;;
32455;SDS011;18912;43.270;27.942;2022-10-19T06:11:37;13.00;;;6.15;;
32455;SDS011;18912;43.270;27.942;2022-10-19T06:13:59;15.57;;;6.20;;
32455;SDS011;18912;43.270;27.942;2022-10-19T06:16:26;13.05;;;7.15;;
32455;SDS011;18912;43.270;27.942;2022-10-19T06:21:19;25.83;;;8.10;;
32455;SDS011;18912;43.270;27.942;2022-10-19T06:23:52;24.63;;;8.43;;
32455;SDS011;18912;43.270;27.942;2022-10-19T06:26:20;21.00;;;9.13;;
32455;SDS011;18912;43.270;27.942;2022-10-19T06:28:46;27.95;;;11.43;;
32455;SDS011;18912;43.270;27.942;2022-10-19T06:31:13;31.40;;;12.63;;
32455;SDS011;18912;43.270;27.942;2022-10-19T06:33:39;33.03;;;14.80;;
32455;SDS011;18912;43.270;27.942;2022-10-19T06:36:21;34.25;;;14.20;;
32455;SDS011;18912;43.270;27.942;2022-10-19T06:38:48;26.15;;;11.48;;
32455;SDS011;18912;43.270;27.942;2022-10-19T06:41:15;20.37;;;8.20;;
32455;SDS011;18912;43.270;27.942;2022-10-19T06:43:40;15.60;;;4.63;;
32455;SDS011;18912;43.270;27.942;2022-10-19T06:48:34;13.02;;;4.50;;
32455;SDS011;18912;43.270;27.942;2022-10-19T06:51:00;11.07;;;4.03;;
32455;SDS011;18912;43.270;27.942;2022-10-19T06:53:27;10.05;;;2.95;;
32455;SDS011;18912;43.270;27.942;2022-10-19T06:55:56;15.17;;;3.00;;
32455;SDS011;18912;43.270;27.942;2022-10-19T06:58:23;6.55;;;2.30;;
32455;SDS011;18912;43.270;27.942;2022-10-19T07:00:56;8.70;;;2.83;;
32455;SDS011;18912;43.270;27.942;2022-10-19T07:03:23;4.80;;;2.20;;
32455;SDS011;18912;43.270;27.942;2022-10-19T07:05:57;5.28;;;2.13;;
32455;SDS011;18912;43.270;27.942;2022-10-19T07:08:24;8.90;;;2.67;;
32455;SDS011;18912;43.270;27.942;2022-10-19T07:10:52;6.13;;;2.08;;
32455;SDS011;18912;43.270;27.942;2022-10-19T07:13:19;6.97;;;2.00;;
32455;SDS011;18912;43.270;27.942;2022-10-19T07:15:45;8.70;;;2.65;;
32455;SDS011;18912;43.270;27.942;2022-10-19T07:18:11;5.55;;;2.45;;
32455;SDS011;18912;43.270;27.942;2022-10-19T07:20:37;8.63;;;2.47;;
32455;SDS011;18912;43.270;27.942;2022-10-19T07:23:02;5.57;;;2.57;;
32455;SDS011;18912;43.270;27.942;2022-10-19T07:25:28;7.32;;;2.17;;
32455;SDS011;18912;43.270;27.942;2022-10-19T07:27:54;15.60;;;2.55;;
32455;SDS011;18912;43.270;27.942;2022-10-19T07:30:20;13.52;;;2.60;;
32455;SDS011;18912;43.270;27.942;2022-10-19T07:32:47;7.65;;;2.50;;
32455;SDS011;18912;43.270;27.942;2022-10-19T07:35:12;3.58;;;2.30;;
32455;SDS011;18912;43.270;27.942;2022-10-19T07:37:38;6.05;;;2.33;;
32455;SDS011;18912;43.270;27.942;2022-10-19T07:40:04;10.80;;;2.47;;
32455;SDS011;18912;43.270;27.942;2022-10-19T07:42:30;6.78;;;2.38;;
32455;SDS011;18912;43.270;27.942;2022-10-19T07:44:55;8.53;;;2.27;;
32455;SDS011;18912;43.270;27.942;2022-10-19T07:47:21;5.37;;;2.47;;
32455;SDS011;18912;43.270;27.942;2022-10-19T07:49:46;26.50;;;3.17;;
32455;SDS011;18912;43.270;27.942;2022-10-19T07:52:12;5.83;;;2.47;;
32455;SDS011;18912;43.270;27.942;2022-10-19T07:54:37;8.93;;;2.33;;
32455;SDS011;18912;43.270;27.942;2022-10-19T07:57:03;9.57;;;3.07;;
32455;SDS011;18912;43.270;27.942;2022-10-19T07:59:28;13.17;;;2.90;;
32455;SDS011;18912;43.270;27.942;2022-10-19T08:01:54;7.37;;;2.30;;
32455;SDS011;18912;43.270;27.942;2022-10-19T08:04:21;13.70;;;2.85;;
32455;SDS011;18912;43.270;27.942;2022-10-19T08:06:46;7.97;;;2.40;;
32455;SDS011;18912;43.270;27.942;2022-10-19T08:09:12;10.23;;;2.60;;
32455;SDS011;18912;43.270;27.942;2022-10-19T08:11:38;10.10;;;2.65;;
32455;SDS011;18912;43.270;27.942;2022-10-19T08:14:04;4.47;;;2.23;;
32455;SDS011;18912;43.270;27.942;2022-10-19T08:19:10;9.05;;;2.63;;
32455;SDS011;18912;43.270;27.942;2022-10-19T08:21:38;7.53;;;2.15;;
32455;SDS011;18912;43.270;27.942;2022-10-19T08:24:05;5.72;;;2.30;;
32455;SDS011;18912;43.270;27.942;2022-10-19T08:26:33;4.72;;;2.05;;
32455;SDS011;18912;43.270;27.942;2022-10-19T08:29:02;3.85;;;2.20;;
32455;SDS011;18912;43.270;27.942;2022-10-19T08:31:28;9.35;;;2.33;;
32455;SDS011;18912;43.270;27.942;2022-10-19T08:33:54;9.83;;;2.40;;
32455;SDS011;18912;43.270;27.942;2022-10-19T08:36:20;4.57;;;2.50;;
32455;SDS011;18912;43.270;27.942;2022-10-19T08:38:46;4.40;;;2.07;;
32455;SDS011;18912;43.270;27.942;2022-10-19T08:49:35;7.60;;;2.78;;
32455;SDS011;18912;43.270;27.942;2022-10-19T08:52:03;8.33;;;2.50;;
32455;SDS011;18912;43.270;27.942;2022-10-19T08:54:56;9.60;;;2.33;;
32455;SDS011;18912;43.270;27.942;2022-10-19T09:00:53;7.97;;;2.35;;
32455;SDS011;18912;43.270;27.942;2022-10-19T09:03:25;11.35;;;2.45;;
32455;SDS011;18912;43.270;27.942;2022-10-19T09:06:17;3.83;;;2.20;;
32455;SDS011;18912;43.270;27.942;2022-10-19T09:08:50;4.78;;;2.35;;
32455;SDS011;18912;43.270;27.942;2022-10-19T09:11:19;8.52;;;2.80;;
32455;SDS011;18912;43.270;27.942;2022-10-19T09:13:50;8.30;;;3.25;;
32455;SDS011;18912;43.270;27.942;2022-10-19T09:16:24;4.45;;;2.13;;
32455;SDS011;18912;43.270;27.942;2022-10-19T09:18:51;8.15;;;2.40;;
32455;SDS011;18912;43.270;27.942;2022-10-19T09:26:24;9.52;;;2.67;;
32455;SDS011;18912;43.270;27.942;2022-10-19T09:31:39;3.10;;;2.10;;
32455;SDS011;18912;43.270;27.942;2022-10-19T09:34:11;11.25;;;2.72;;
32455;SDS011;18912;43.270;27.942;2022-10-19T09:36:51;5.22;;;2.50;;
32455;SDS011;18912;43.270;27.942;2022-10-19T09:39:21;10.32;;;2.42;;
32455;SDS011;18912;43.270;27.942;2022-10-19T09:41:57;7.57;;;2.22;;
32455;SDS011;18912;43.270;27.942;2022-10-19T09:44:28;8.10;;;2.38;;
32455;SDS011;18912;43.270;27.942;2022-10-19T09:49:39;6.93;;;2.65;;
32455;SDS011;18912;43.270;27.942;2022-10-19T09:52:22;8.27;;;1.88;;
32455;SDS011;18912;43.270;27.942;2022-10-19T09:55:04;6.25;;;2.60;;
32455;SDS011;18912;43.270;27.942;2022-10-19T09:57:42;10.25;;;2.50;;
32455;SDS011;18912;43.270;27.942;2022-10-19T10:00:18;7.05;;;2.60;;
32455;SDS011;18912;43.270;27.942;2022-10-19T10:02:49;10.27;;;2.30;;
32455;SDS011;18912;43.270;27.942;2022-10-19T10:05:18;8.25;;;2.42;;
32455;SDS011;18912;43.270;27.942;2022-10-19T10:07:53;5.70;;;2.47;;
32455;SDS011;18912;43.270;27.942;2022-10-19T10:10:23;3.33;;;2.30;;
32455;SDS011;18912;43.270;27.942;2022-10-19T10:12:53;15.63;;;2.85;;
32455;SDS011;18912;43.270;27.942;2022-10-19T10:15:28;6.78;;;3.13;;
32455;SDS011;18912;43.270;27.942;2022-10-19T10:18:09;6.57;;;2.78;;
32455;SDS011;18912;43.270;27.942;2022-10-19T10:21:18;4.35;;;2.58;;
32455;SDS011;18912;43.270;27.942;2022-10-19T10:23:36;6.95;;;2.70;;
32455;SDS011;18912;43.270;27.942;2022-10-19T10:26:02;8.82;;;2.80;;
32455;SDS011;18912;43.270;27.942;2022-10-19T10:28:30;6.32;;;2.92;;
32455;SDS011;18912;43.270;27.942;2022-10-19T10:31:03;9.73;;;2.95;;
32455;SDS011;18912;43.270;27.942;2022-10-19T10:33:31;15.82;;;5.10;;
32455;SDS011;18912;43.270;27.942;2022-10-19T10:36:04;10.27;;;2.90;;
32455;SDS011;18912;43.270;27.942;2022-10-19T10:38:45;14.95;;;2.95;;
32455;SDS011;18912;43.270;27.942;2022-10-19T10:41:18;6.95;;;3.17;;
32455;SDS011;18912;43.270;27.942;2022-10-19T10:46:15;4.00;;;2.42;;
32455;SDS011;18912;43.270;27.942;2022-10-19T10:48:53;7.40;;;2.70;;
32455;SDS011;18912;43.270;27.942;2022-10-19T10:57:09;8.20;;;2.80;;
32455;SDS011;18912;43.270;27.942;2022-10-19T10:59:53;10.15;;;3.03;;
32455;SDS011;18912;43.270;27.942;2022-10-19T11:02:57;5.32;;;2.65;;
32455;SDS011;18912;43.270;27.942;2022-10-19T11:05:41;5.53;;;3.03;;
32455;SDS011;18912;43.270;27.942;2022-10-19T11:10:38;8.57;;;2.30;;
32455;SDS011;18912;43.270;27.942;2022-10-19T11:13:15;11.80;;;2.58;;
32455;SDS011;18912;43.270;27.942;2022-10-19T11:15:53;13.02;;;2.95;;
32455;SDS011;18912;43.270;27.942;2022-10-19T11:18:26;13.50;;;2.78;;
32455;SDS011;18912;43.270;27.942;2022-10-19T11:20:59;8.43;;;2.72;;
32455;SDS011;18912;43.270;27.942;2022-10-19T11:31:46;7.50;;;2.85;;
32455;SDS011;18912;43.270;27.942;2022-10-19T11:53:11;6.90;;;2.78;;
32455;SDS011;18912;43.270;27.942;2022-10-19T11:55:57;7.45;;;2.65;;
32455;SDS011;18912;43.270;27.942;2022-10-19T12:09:11;11.93;;;3.72;;
32455;SDS011;18912;43.270;27.942;2022-10-19T12:11:48;10.93;;;3.67;;
32455;SDS011;18912;43.270;27.942;2022-10-19T12:14:40;7.65;;;3.83;;
32455;SDS011;18912;43.270;27.942;2022-10-19T12:17:14;13.52;;;3.88;;
32455;SDS011;18912;43.270;27.942;2022-10-19T12:19:46;14.07;;;4.65;;
32455;SDS011;18912;43.270;27.942;2022-10-19T12:22:20;14.95;;;3.72;;
32455;SDS011;18912;43.270;27.942;2022-10-19T12:24:48;34.63;;;4.63;;
32455;SDS011;18912;43.270;27.942;2022-10-19T12:27:15;8.00;;;3.55;;
32455;SDS011;18912;43.270;27.942;2022-10-19T12:29:43;8.02;;;3.08;;
32455;SDS011;18912;43.270;27.942;2022-10-19T12:32:13;15.13;;;4.15;;
32455;SDS011;18912;43.270;27.942;2022-10-19T12:40:01;11.77;;;3.85;;
32455;SDS011;18912;43.270;27.942;2022-10-19T12:53:29;19.65;;;4.00;;
32455;SDS011;18912;43.270;27.942;2022-10-19T13:01:16;9.15;;;3.88;;
32455;SDS011;18912;43.270;27.942;2022-10-19T13:03:45;8.82;;;3.65;;
32455;SDS011;18912;43.270;27.942;2022-10-19T13:06:15;6.57;;;3.22;;
32455;SDS011;18912;43.270;27.942;2022-10-19T13:08:54;7.55;;;3.20;;
32455;SDS011;18912;43.270;27.942;2022-10-19T13:11:23;12.90;;;3.60;;
32455;SDS011;18912;43.270;27.942;2022-10-19T13:13:59;5.95;;;3.50;;
32455;SDS011;18912;43.270;27.942;2022-10-19T13:16:55;10.13;;;3.83;;
32455;SDS011;18912;43.270;27.942;2022-10-19T13:19:22;12.63;;;4.15;;
32455;SDS011;18912;43.270;27.942;2022-10-19T13:24:24;9.60;;;3.42;;
32455;SDS011;18912;43.270;27.942;2022-10-19T13:29:27;9.07;;;3.80;;
32455;SDS011;18912;43.270;27.942;2022-10-19T13:43:17;12.13;;;3.72;;
32455;SDS011;18912;43.270;27.942;2022-10-19T13:51:30;6.25;;;3.70;;
32455;SDS011;18912;43.270;27.942;2022-10-19T13:59:51;19.80;;;3.70;;
32455;SDS011;18912;43.270;27.942;2022-10-19T14:05:27;12.38;;;3.85;;
32455;SDS011;18912;43.270;27.942;2022-10-19T14:10:38;8.95;;;3.72;;
32455;SDS011;18912;43.270;27.942;2022-10-19T14:13:05;8.98;;;3.70;;
32455;SDS011;18912;43.270;27.942;2022-10-19T14:15:37;9.25;;;4.00;;
32455;SDS011;18912;43.270;27.942;2022-10-19T14:18:16;9.70;;;3.40;;
32455;SDS011;18912;43.270;27.942;2022-10-19T14:20:56;7.18;;;3.58;;
32455;SDS011;18912;43.270;27.942;2022-10-19T14:23:24;14.55;;;4.05;;
32455;SDS011;18912;43.270;27.942;2022-10-19T14:25:56;13.68;;;3.58;;
32455;SDS011;18912;43.270;27.942;2022-10-19T14:28:22;20.85;;;3.72;;
32455;SDS011;18912;43.270;27.942;2022-10-19T14:33:23;11.45;;;4.22;;
32455;SDS011;18912;43.270;27.942;2022-10-19T14:35:51;8.43;;;3.67;;
32455;SDS011;18912;43.270;27.942;2022-10-19T14:38:36;12.25;;;3.80;;
32455;SDS011;18912;43.270;27.942;2022-10-19T14:41:05;10.50;;;3.78;;
32455;SDS011;18912;43.270;27.942;2022-10-19T14:48:36;5.97;;;3.47;;
32455;SDS011;18912;43.270;27.942;2022-10-19T14:51:05;17.13;;;3.70;;
32455;SDS011;18912;43.270;27.942;2022-10-19T14:53:52;7.63;;;3.60;;
32455;SDS011;18912;43.270;27.942;2022-10-19T14:56:23;7.40;;;4.03;;
32455;SDS011;18912;43.270;27.942;2022-10-19T14:58:58;8.75;;;4.10;;
32455;SDS011;18912;43.270;27.942;2022-10-19T15:01:27;18.15;;;4.57;;
32455;SDS011;18912;43.270;27.942;2022-10-19T15:03:52;11.20;;;3.90;;
32455;SDS011;18912;43.270;27.942;2022-10-19T15:06:20;8.50;;;4.53;;
32455;SDS011;18912;43.270;27.942;2022-10-19T15:08:50;11.57;;;4.90;;
32455;SDS011;18912;43.270;27.942;2022-10-19T15:11:37;18.00;;;5.40;;
32455;SDS011;18912;43.270;27.942;2022-10-19T15:14:11;14.73;;;5.25;;
32455;SDS011;18912;43.270;27.942;2022-10-19T15:16:49;14.23;;;6.10;;
32455;SDS011;18912;43.270;27.942;2022-10-19T15:19:23;16.10;;;5.68;;
32455;SDS011;18912;43.270;27.942;2022-10-19T15:22:06;11.80;;;5.15;;
32455;SDS011;18912;43.270;27.942;2022-10-19T15:24:37;16.92;;;5.30;;
32455;SDS011;18912;43.270;27.942;2022-10-19T15:27:07;23.17;;;6.03;;
32455;SDS011;18912;43.270;27.942;2022-10-19T15:29:53;13.65;;;5.70;;
32455;SDS011;18912;43.270;27.942;2022-10-19T15:32:42;14.18;;;5.68;;
32455;SDS011;18912;43.270;27.942;2022-10-19T15:35:09;14.90;;;5.97;;
32455;SDS011;18912;43.270;27.942;2022-10-19T15:37:37;13.98;;;5.22;;
32455;SDS011;18912;43.270;27.942;2022-10-19T15:40:08;18.50;;;6.32;;
32455;SDS011;18912;43.270;27.942;2022-10-19T15:42:41;13.60;;;6.93;;
32455;SDS011;18912;43.270;27.942;2022-10-19T15:45:32;20.63;;;7.25;;
32455;SDS011;18912;43.270;27.942;2022-10-19T15:50:47;57.97;;;9.60;;
32455;SDS011;18912;43.270;27.942;2022-10-19T15:53:14;22.98;;;6.13;;
32455;SDS011;18912;43.270;27.942;2022-10-19T15:55:40;18.23;;;6.70;;
32455;SDS011;18912;43.270;27.942;2022-10-19T15:58:07;27.03;;;6.33;;
32455;SDS011;18912;43.270;27.942;2022-10-19T16:00:34;13.82;;;5.97;;
32455;SDS011;18912;43.270;27.942;2022-10-19T16:02:59;43.40;;;7.83;;
32455;SDS011;18912;43.270;27.942;2022-10-19T16:05:25;24.40;;;6.37;;
32455;SDS011;18912;43.270;27.942;2022-10-19T16:07:50;23.93;;;5.67;;
32455;SDS011;18912;43.270;27.942;2022-10-19T16:10:17;30.17;;;6.00;;
32455;SDS011;18912;43.270;27.942;2022-10-19T16:12:46;40.83;;;6.68;;
32455;SDS011;18912;43.270;27.942;2022-10-19T16:15:12;33.03;;;6.70;;
32455;SDS011;18912;43.270;27.942;2022-10-19T16:17:40;29.15;;;11.05;;
32455;SDS011;18912;43.270;27.942;2022-10-19T16:20:08;30.77;;;13.20;;
32455;SDS011;18912;43.270;27.942;2022-10-19T16:22:34;21.85;;;10.55;;
32455;SDS011;18912;43.270;27.942;2022-10-19T16:25:00;22.53;;;8.90;;
32455;SDS011;18912;43.270;27.942;2022-10-19T16:27:25;19.77;;;10.17;;
32455;SDS011;18912;43.270;27.942;2022-10-19T16:29:51;25.53;;;9.97;;
32455;SDS011;18912;43.270;27.942;2022-10-19T16:32:16;41.93;;;12.53;;
32455;SDS011;18912;43.270;27.942;2022-10-19T16:34:42;32.00;;;11.70;;
32455;SDS011;18912;43.270;27.942;2022-10-19T16:37:08;33.30;;;8.33;;
32455;SDS011;18912;43.270;27.942;2022-10-19T16:39:33;25.27;;;10.97;;
32455;SDS011;18912;43.270;27.942;2022-10-19T16:41:59;21.47;;;10.50;;
32455;SDS011;18912;43.270;27.942;2022-10-19T16:44:24;29.47;;;10.30;;
32455;SDS011;18912;43.270;27.942;2022-10-19T16:46:50;24.70;;;9.80;;
32455;SDS011;18912;43.270;27.942;2022-10-19T16:49:15;26.23;;;9.60;;
32455;SDS011;18912;43.270;27.942;2022-10-19T16:51:41;24.03;;;10.93;;
32455;SDS011;18912;43.270;27.942;2022-10-19T16:54:07;35.27;;;14.67;;
32455;SDS011;18912;43.270;27.942;2022-10-19T16:56:35;26.75;;;12.65;;
32455;SDS011;18912;43.270;27.942;2022-10-19T16:59:02;28.88;;;13.10;;
32455;SDS011;18912;43.270;27.942;2022-10-19T17:01:30;40.95;;;14.07;;
32455;SDS011;18912;43.270;27.942;2022-10-19T17:03:57;35.88;;;15.90;;
32455;SDS011;18912;43.270;27.942;2022-10-19T17:06:23;32.83;;;15.47;;
32455;SDS011;18912;43.270;27.942;2022-10-19T17:08:49;35.00;;;14.77;;
32455;SDS011;18912;43.270;27.942;2022-10-19T17:13:41;36.47;;;15.13;;
32455;SDS011;18912;43.270;27.942;2022-10-19T17:16:08;36.75;;;16.70;;
32455;SDS011;18912;43.270;27.942;2022-10-19T17:21:01;39.65;;;13.77;;
32455;SDS011;18912;43.270;27.942;2022-10-19T17:23:31;33.53;;;14.70;;
32455;SDS011;18912;43.270;27.942;2022-10-19T17:25:57;29.73;;;13.95;;
32455;SDS011;18912;43.270;27.942;2022-10-19T17:28:22;31.17;;;14.47;;
32455;SDS011;18912;43.270;27.942;2022-10-19T17:30:48;33.07;;;13.83;;
32455;SDS011;18912;43.270;27.942;2022-10-19T17:33:16;28.08;;;14.60;;
32455;SDS011;18912;43.270;27.942;2022-10-19T17:35:41;30.80;;;12.43;;
32455;SDS011;18912;43.270;27.942;2022-10-19T17:38:07;41.83;;;12.30;;
32455;SDS011;18912;43.270;27.942;2022-10-19T17:40:32;34.93;;;12.60;;